Time;durP1;ratioP1;P1;durP2;ratioP2;P2;SDS_P1;SDS_P2;PMS_P1;PMS_P2;Temp;Humidity;BMP_temperature;BMP_pressure;BME280_temperature;BME280_humidity;BME280_pressure;Samples;Min_cycle;Max_cycle;Signal;HPM_P1;HPM_P2
2022/05/23 00:00:59;;;;;;;;;;;;;;;21.46;28.89;97159.34;4974997;28;2168;-76
2022/05/23 00:03:26;;;;;;;;;;;;;;;21.40;29.35;97162.00;5011793;28;966;-76
2022/05/23 00:05:52;;;;;;;;;;;;;;;21.62;29.07;97155.47;5015915;28;1001;-76
2022/05/23 00:08:17;;;;;;;;;;;;;;;21.86;28.61;97159.31;4999154;28;988;-76
2022/05/23 00:10:43;;;;;;;;;;;;;;;21.94;28.44;97163.47;4997324;28;1921;-76
2022/05/23 00:13:08;;;;;;;;;;;;;;;21.73;28.72;97161.50;5015644;28;925;-76
2022/05/23 00:15:34;;;;;;;;;;;;;;;21.64;28.92;97170.72;5015591;28;1914;-76
2022/05/23 00:17:59;;;;;;;;;;;;;;;21.62;28.74;97173.25;5016189;28;950;-76
2022/05/23 00:20:26;;;;;;;;;;;;;;;21.64;28.64;97169.94;5003013;28;2183;-76
2022/05/23 00:22:52;;;;;;;;;;;;;;;21.57;28.71;97165.38;4995940;28;1043;-76
2022/05/23 00:25:17;;;;;;;;;;;;;;;21.29;29.66;97170.84;4995823;28;906;-76
2022/05/23 00:27:45;;;;;;;;;;;;;;;21.96;28.63;97162.97;4996077;28;1047;-76
2022/05/23 00:30:18;;;;;;;;;;;;;;;22.15;28.16;97161.03;5004192;28;2159;-76
2022/05/23 00:35:27;;;;;;;;;;;;;;;21.55;28.96;97157.34;4976052;28;2017;-77
2022/05/23 00:37:55;;;;;;;;;;;;;;;21.53;28.64;97164.72;4976228;28;959;-76
2022/05/23 00:40:31;;;;;;;;;;;;;;;21.54;28.73;97164.25;4946799;28;1900;-77
2022/05/23 00:43:13;;;;;;;;;;;;;;;21.55;28.67;97157.34;4959897;28;1262;-76
2022/05/23 00:45:39;;;;;;;;;;;;;;;21.64;28.57;97165.06;4956592;29;989;-76
2022/05/23 00:48:06;;;;;;;;;;;;;;;21.81;28.62;97166.41;4956778;29;966;-76
2022/05/23 00:50:32;;;;;;;;;;;;;;;22.03;28.22;97165.53;4954443;29;2134;-76
2022/05/23 00:52:58;;;;;;;;;;;;;;;21.71;28.64;97170.47;4940501;29;997;-77
2022/05/23 00:55:25;;;;;;;;;;;;;;;21.66;28.71;97167.44;4956317;29;1911;-75
2022/05/23 00:57:51;;;;;;;;;;;;;;;21.65;28.62;97163.81;4956498;28;1004;-76
2022/05/23 01:00:17;;;;;;;;;;;;;;;21.59;28.71;97169.28;4878646;29;2146;-76
2022/05/23 01:02:43;;;;;;;;;;;;;;;21.49;28.94;97170.50;4881756;29;1070;-76
2022/05/23 01:05:09;;;;;;;;;;;;;;;21.58;28.72;97173.38;4825310;29;2235;-76
2022/05/23 01:07:34;;;;;;;;;;;;;;;21.70;28.97;97180.19;4825539;29;1139;-76
2022/05/23 01:10:00;;;;;;;;;;;;;;;22.14;28.39;97179.28;4830545;29;2086;-76
2022/05/23 01:12:26;;;;;;;;;;;;;;;21.63;28.79;97174.81;4828402;29;1162;-77
2022/05/23 01:14:52;;;;;;;;;;;;;;;21.64;28.99;97169.94;4828733;29;1968;-76
2022/05/23 01:17:18;;;;;;;;;;;;;;;21.62;28.98;97178.91;4838845;29;988;-77
2022/05/23 01:19:44;;;;;;;;;;;;;;;21.52;29.07;97174.47;4841307;29;2214;-77
2022/05/23 01:22:32;;;;;;;;;;;;;;;21.58;29.01;97178.25;4843544;29;1015;-77
2022/05/23 01:25:06;;;;;;;;;;;;;;;21.61;28.78;97183.00;4806843;29;1142;-76
2022/05/23 01:27:32;;;;;;;;;;;;;;;21.73;29.13;97164.34;4786647;29;2116;-76
2022/05/23 01:29:59;;;;;;;;;;;;;;;22.04;28.27;97170.72;4769812;30;2011;-76
2022/05/23 01:32:25;;;;;;;;;;;;;;;22.01;28.32;97165.19;4787656;29;1124;-77
2022/05/23 01:34:51;;;;;;;;;;;;;;;21.78;28.39;97170.16;4839100;29;1911;-76
2022/05/23 01:37:19;;;;;;;;;;;;;;;21.70;28.71;97173.75;4825475;29;1503;-77
2022/05/23 01:39:55;;;;;;;;;;;;;;;21.74;28.52;97192.16;4803619;29;1068;-76
2022/05/23 01:42:56;;;;;;;;;;;;;;;21.49;28.83;97181.03;4806374;29;1255;-77
2022/05/23 01:45:22;;;;;;;;;;;;;;;21.54;29.04;97181.22;4825275;29;1144;-76
2022/05/23 01:47:49;;;;;;;;;;;;;;;21.49;29.16;97183.88;4824336;29;2167;-77
2022/05/23 01:50:17;;;;;;;;;;;;;;;21.94;28.94;97182.50;4838698;29;1898;-77
2022/05/23 01:52:50;;;;;;;;;;;;;;;22.10;28.53;97183.03;4840124;29;1094;-76
2022/05/23 01:55:19;;;;;;;;;;;;;;;21.66;29.27;97179.56;4861335;29;1986;-77
2022/05/23 01:58:06;;;;;;;;;;;;;;;21.66;29.31;97176.75;4856114;29;1882;-77
2022/05/23 02:03:17;;;;;;;;;;;;;;;21.61;28.93;97166.03;4806366;29;1239;-76
2022/05/23 02:05:44;;;;;;;;;;;;;;;21.48;29.30;97159.66;4791382;29;1198;-77
2022/05/23 02:08:09;;;;;;;;;;;;;;;21.50;29.33;97154.31;4805091;29;1874;-77
2022/05/23 02:10:35;;;;;;;;;;;;;;;21.33;29.60;97145.28;4809193;29;1162;-76
2022/05/23 02:13:05;;;;;;;;;;;;;;;21.44;29.65;97137.16;4824605;29;1153;-76
2022/05/23 02:15:32;;;;;;;;;;;;;;;21.81;29.50;97140.94;4824740;29;1974;-76
2022/05/23 02:18:13;;;;;;;;;;;;;;;22.06;29.04;97130.59;4879019;29;1695;-77
2022/05/23 02:20:38;;;;;;;;;;;;;;;21.89;28.82;97129.28;4879801;29;1348;-76
2022/05/23 02:23:05;;;;;;;;;;;;;;;21.85;29.03;97144.38;4898149;29;1252;-76
2022/05/23 02:25:31;;;;;;;;;;;;;;;21.79;29.26;97149.09;4901242;29;1560;-77
2022/05/23 02:28:00;;;;;;;;;;;;;;;21.46;29.64;97145.19;4895827;29;2099;-77
2022/05/23 02:30:39;;;;;;;;;;;;;;;21.45;29.52;97146.41;4883143;29;1103;-76
2022/05/23 02:33:13;;;;;;;;;;;;;;;21.53;29.92;97144.91;4908969;29;1458;-76
2022/05/23 02:35:39;;;;;;;;;;;;;;;21.69;29.66;97110.66;4955626;29;1916;-77
2022/05/23 02:38:05;;;;;;;;;;;;;;;22.03;29.33;97140.03;4917529;29;2113;-76
2022/05/23 02:40:30;;;;;;;;;;;;;;;21.84;29.31;97133.53;4955594;29;1191;-76
2022/05/23 02:42:56;;;;;;;;;;;;;;;21.63;29.51;97134.41;4955180;29;1114;-77
2022/05/23 02:45:21;;;;;;;;;;;;;;;21.52;29.84;97140.50;4955523;29;1333;-77
2022/05/23 02:47:47;;;;;;;;;;;;;;;21.61;29.63;97143.38;4933280;29;2042;-77
2022/05/23 02:50:13;;;;;;;;;;;;;;;21.65;30.19;97137.53;4916904;29;1113;-77
2022/05/23 02:52:44;;;;;;;;;;;;;;;21.99;29.25;97131.69;4897811;29;1583;-77
2022/05/23 02:55:22;;;;;;;;;;;;;;;21.79;29.46;97132.09;4897901;29;1989;-77
2022/05/23 02:57:49;;;;;;;;;;;;;;;21.52;29.85;97137.66;4846263;29;2358;-77
2022/05/23 03:00:19;;;;;;;;;;;;;;;21.57;29.77;97128.56;4841899;29;1309;-77
2022/05/23 03:03:01;;;;;;;;;;;;;;;21.30;29.85;97132.84;4827657;29;1241;-77
2022/05/23 03:05:33;;;;;;;;;;;;;;;21.45;29.59;97135.09;4842577;29;1200;-77
2022/05/23 03:07:58;;;;;;;;;;;;;;;21.53;29.89;97147.72;4804924;29;1914;-76
2022/05/23 03:10:24;;;;;;;;;;;;;;;21.58;30.08;97142.25;4797511;29;1011;-76
2022/05/23 03:12:49;;;;;;;;;;;;;;;22.01;29.42;97139.69;4770014;30;1098;-77
2022/05/23 03:15:15;;;;;;;;;;;;;;;22.12;29.22;97142.91;4770027;30;1981;-77
2022/05/23 03:17:42;;;;;;;;;;;;;;;21.76;29.72;97137.91;4751435;30;2214;-77
2022/05/23 03:20:09;;;;;;;;;;;;;;;21.60;29.79;97136.09;4730652;30;1170;-77
2022/05/23 03:28:02;;;;;;;;;;;;;;;21.55;30.10;97145.22;4719496;30;2177;-76
2022/05/23 03:30:30;;;;;;;;;;;;;;;21.83;29.81;97141.25;4742820;30;1222;-77
2022/05/23 03:32:57;;;;;;;;;;;;;;;22.11;29.25;97147.00;4754742;30;1253;-77
2022/05/23 03:35:23;;;;;;;;;;;;;;;21.95;29.40;97150.84;4739877;30;2231;-77
2022/05/23 03:37:48;;;;;;;;;;;;;;;21.85;29.49;97150.03;4716085;30;2154;-77
2022/05/23 03:40:15;;;;;;;;;;;;;;;21.65;30.03;97158.16;4717371;30;1170;-77
2022/05/23 03:42:46;;;;;;;;;;;;;;;21.78;29.80;97158.06;4703063;30;1199;-77
2022/05/23 03:45:12;;;;;;;;;;;;;;;21.70;30.02;97162.41;4708290;30;2227;-77
2022/05/23 03:47:43;;;;;;;;;;;;;;;21.66;30.06;97168.25;4717942;30;1422;-76
2022/05/23 03:50:13;;;;;;;;;;;;;;;21.42;30.65;97175.66;4754783;30;1333;-76
2022/05/23 03:52:39;;;;;;;;;;;;;;;21.66;30.51;97173.91;4754817;30;1197;-77
2022/05/23 03:55:05;;;;;;;;;;;;;;;21.41;30.62;97174.88;4749979;30;2260;-76
2022/05/23 03:57:31;;;;;;;;;;;;;;;21.43;30.87;97177.25;4735803;30;1240;-77
2022/05/23 03:59:57;;;;;;;;;;;;;;;21.49;30.71;97186.69;4754498;30;980;-77
2022/05/23 04:02:23;;;;;;;;;;;;;;;21.71;30.56;97176.13;4769378;30;1064;-77
2022/05/23 04:04:49;;;;;;;;;;;;;;;21.98;30.40;97177.47;4785036;30;952;-77
2022/05/23 04:07:36;;;;;;;;;;;;;;;22.10;29.77;97185.06;4790371;30;866;-77
2022/05/23 04:10:12;;;;;;;;;;;;;;;21.74;30.15;97189.34;4811538;29;1171;-77
2022/05/23 04:12:38;;;;;;;;;;;;;;;21.63;30.38;97186.16;4807942;29;1138;-77
2022/05/23 04:15:04;;;;;;;;;;;;;;;21.63;30.09;97185.38;4808085;29;1915;-76
2022/05/23 04:17:30;;;;;;;;;;;;;;;21.51;30.47;97181.38;4808211;29;1266;-76
2022/05/23 04:19:56;;;;;;;;;;;;;;;21.51;30.30;97178.56;4846502;29;1179;-76
2022/05/23 04:22:24;;;;;;;;;;;;;;;21.51;30.26;97178.56;4878712;29;1399;-76
2022/05/23 04:25:03;;;;;;;;;;;;;;;21.59;30.74;97185.50;4865855;29;1320;-76
2022/05/23 04:27:29;;;;;;;;;;;;;;;21.93;30.27;97181.72;4865813;29;1156;-76
2022/05/23 04:29:54;;;;;;;;;;;;;;;22.14;29.53;97174.41;4899786;29;1566;-77
2022/05/23 04:35:18;;;;;;;;;;;;;;;21.59;30.17;97182.66;4918464;29;1911;-76
2022/05/23 04:37:45;;;;;;;;;;;;;;;21.66;30.08;97199.38;4880891;29;1132;-76
2022/05/23 04:40:13;;;;;;;;;;;;;;;21.59;29.84;97199.66;4899853;29;1153;-76
2022/05/23 04:42:39;;;;;;;;;;;;;;;21.48;30.31;97207.78;4936578;29;1228;-77
2022/05/23 04:45:04;;;;;;;;;;;;;;;21.38;30.66;97215.41;4936849;29;1310;-77
2022/05/23 04:50:20;;;;;;;;;;;;;;;21.52;31.06;97214.88;4947819;29;1228;-77
2022/05/23 04:52:52;;;;;;;;;;;;;;;21.77;30.49;97207.44;4936355;29;1213;-77
2022/05/23 04:55:20;;;;;;;;;;;;;;;21.98;30.23;97217.13;4953135;29;1973;-76
2022/05/23 04:57:46;;;;;;;;;;;;;;;21.75;30.37;97215.59;4909523;29;1185;-77
2022/05/23 05:00:13;;;;;;;;;;;;;;;21.64;30.42;97210.38;4908364;29;1287;-77
2022/05/23 05:02:52;;;;;;;;;;;;;;;21.56;30.44;97226.06;4908548;29;1164;-76
2022/05/23 05:05:22;;;;;;;;;;;;;;;21.55;30.52;97230.13;4924386;29;1279;-77
2022/05/23 05:07:50;;;;;;;;;;;;;;;21.49;30.64;97217.84;4916715;29;1306;-77
2022/05/23 05:10:16;;;;;;;;;;;;;;;21.74;30.99;97225.38;4870558;29;1264;-76
2022/05/23 05:12:42;;;;;;;;;;;;;;;22.00;30.14;97226.72;4887622;29;1454;-76
2022/05/23 05:15:11;;;;;;;;;;;;;;;21.79;30.07;97221.94;4843377;29;1907;-76
2022/05/23 05:17:36;;;;;;;;;;;;;;;21.72;30.55;97225.84;4835554;29;1265;-77
2022/05/23 05:20:02;;;;;;;;;;;;;;;21.67;30.26;97232.09;4827504;29;1378;-77
2022/05/23 05:22:51;;;;;;;;;;;;;;;21.52;30.47;97225.41;4899053;29;1149;-76
2022/05/23 05:25:28;;;;;;;;;;;;;;;21.50;30.23;97228.72;4899033;29;1199;-76
2022/05/23 05:27:57;;;;;;;;;;;;;;;21.61;30.35;97233.97;4898936;29;1155;-76
2022/05/23 05:30:22;;;;;;;;;;;;;;;21.87;30.81;97234.56;4895230;28;1306;-76
2022/05/23 05:32:58;;;;;;;;;;;;;;;21.98;30.24;97226.41;4942993;28;1322;-77
2022/05/23 05:35:24;;;;;;;;;;;;;;;22.09;30.16;97235.25;4942846;28;1980;-77
2022/05/23 05:38:10;;;;;;;;;;;;;;;21.85;30.11;97232.16;4958935;28;1291;-76
2022/05/23 05:40:36;;;;;;;;;;;;;;;21.75;30.06;97239.03;4956974;28;1236;-76
2022/05/23 05:43:03;;;;;;;;;;;;;;;21.64;30.49;97244.34;4916922;29;1362;-76
2022/05/23 05:45:30;;;;;;;;;;;;;;;21.59;30.40;97244.94;4900833;29;1458;-76
2022/05/23 05:48:09;;;;;;;;;;;;;;;21.57;30.55;97250.28;4917236;29;1175;-75
2022/05/23 05:50:36;;;;;;;;;;;;;;;21.59;30.31;97247.78;4917398;29;1236;-76
2022/05/23 05:53:10;;;;;;;;;;;;;;;21.48;30.66;97250.22;4917165;29;1242;-76
2022/05/23 05:55:37;;;;;;;;;;;;;;;21.66;30.46;97253.19;4917378;29;1975;-76
2022/05/23 05:58:03;;;;;;;;;;;;;;;21.44;30.63;97249.56;4917568;29;1272;-76
2022/05/23 06:00:30;;;;;;;;;;;;;;;21.50;30.43;97261.88;4931906;29;1143;-76
2022/05/23 06:02:58;;;;;;;;;;;;;;;21.49;30.60;97271.63;4936159;29;1305;-77
2022/05/23 06:05:27;;;;;;;;;;;;;;;21.46;30.40;97266.91;4936220;29;1295;-77
2022/05/23 06:13:51;;;;;;;;;;;;;;;22.05;30.46;97273.50;4897618;29;1994;-76
2022/05/23 06:16:37;;;;;;;;;;;;;;;21.73;30.50;97278.38;4870721;29;1289;-76
2022/05/23 06:19:05;;;;;;;;;;;;;;;21.69;30.63;97271.25;4870565;29;1281;-77
2022/05/23 06:21:38;;;;;;;;;;;;;;;21.70;30.57;97275.66;4858564;29;1261;-77
2022/05/23 06:24:04;;;;;;;;;;;;;;;21.57;30.50;97272.94;4891853;29;1393;-76
2022/05/23 06:26:41;;;;;;;;;;;;;;;21.63;30.67;97273.13;4869450;29;1231;-77
2022/05/23 06:29:38;;;;;;;;;;;;;;;21.58;30.61;97278.13;4832918;29;1081;-77
2022/05/23 06:32:24;;;;;;;;;;;;;;;21.63;30.49;97271.09;4826489;29;1104;-77
2022/05/23 06:34:50;;;;;;;;;;;;;;;21.58;30.56;97280.16;4824485;29;1986;-77
2022/05/23 06:37:16;;;;;;;;;;;;;;;21.49;30.60;97277.28;4824254;29;1216;-77
2022/05/23 06:39:42;;;;;;;;;;;;;;;21.61;31.17;97279.25;4831576;29;1159;-77
2022/05/23 06:42:37;;;;;;;;;;;;;;;22.06;30.19;97272.22;4798865;29;1085;-77
2022/05/23 06:45:09;;;;;;;;;;;;;;;21.89;30.45;97277.34;4805423;29;1271;-76
2022/05/23 06:47:53;;;;;;;;;;;;;;;21.84;30.75;97273.06;4804315;29;1105;-78
2022/05/23 06:50:37;;;;;;;;;;;;;;;22.64;29.68;97274.34;4809699;29;1110;-74
2022/05/23 06:53:19;;;;;;;;;;;;;;;23.45;28.33;97265.56;4819715;29;1318;-76
2022/05/23 06:55:58;;;;;;;;;;;;;;;23.69;28.36;97263.66;4845613;29;1970;-76
2022/05/23 06:58:24;;;;;;;;;;;;;;;23.74;28.28;97265.84;4880313;29;1274;-75
2022/05/23 07:00:50;;;;;;;;;;;;;;;23.52;28.58;97262.38;4893023;29;1477;-75
2022/05/23 07:03:19;;;;;;;;;;;;;;;23.06;29.56;97266.06;4901058;29;1268;-76
2022/05/23 07:14:17;;;;;;;;;;;;;;;22.64;31.35;97274.34;4917795;29;1918;-76
2022/05/23 07:16:44;;;;;;;;;;;;;;;22.93;30.76;97276.75;4905284;29;1279;-78
2022/05/23 07:19:11;;;;;;;;;;;;;;;23.02;30.89;97276.00;4962072;28;1312;-76
2022/05/23 07:21:48;;;;;;;;;;;;;;;23.08;31.11;97286.22;4937299;28;1463;-77
2022/05/23 07:24:17;;;;;;;;;;;;;;;22.97;31.36;97285.91;4972470;28;1279;-77
2022/05/23 07:26:48;;;;;;;;;;;;;;;22.91;31.34;97281.34;4996467;28;1235;-76
2022/05/23 07:29:15;;;;;;;;;;;;;;;23.11;31.03;97284.50;4970026;28;1192;-73
2022/05/23 07:31:41;;;;;;;;;;;;;;;23.19;31.02;97291.44;4994245;28;1404;-74
2022/05/23 07:34:07;;;;;;;;;;;;;;;23.33;31.47;97290.81;4996515;28;1906;-72
2022/05/23 07:36:33;;;;;;;;;;;;;;;23.61;31.01;97285.09;5013038;28;1185;-74
2022/05/23 07:39:03;;;;;;;;;;;;;;;23.60;31.36;97283.50;5013064;28;1263;-71
2022/05/23 07:41:43;;;;;;;;;;;;;;;23.70;31.57;97290.78;4996286;28;1366;-71
2022/05/23 07:44:10;;;;;;;;;;;;;;;23.75;31.85;97295.81;4996101;28;1665;-72
2022/05/23 07:46:35;;;;;;;;;;;;;;;23.00;31.95;97295.53;4996091;28;981;-71
2022/05/23 07:49:01;;;;;;;;;;;;;;;22.45;32.37;97304.69;4996412;28;1421;-73
2022/05/23 07:51:30;;;;;;;;;;;;;;;22.51;32.79;97299.19;4996451;28;1013;-73
2022/05/23 08:02:41;;;;;;;;;;;;;;;22.28;30.12;97304.16;5002730;28;1137;-73
2022/05/23 08:05:09;;;;;;;;;;;;;;;22.36;29.58;97293.31;4999608;28;1182;-73
2022/05/23 08:07:41;;;;;;;;;;;;;;;22.33;29.30;97300.72;5014845;28;1136;-73
2022/05/23 08:10:07;;;;;;;;;;;;;;;22.06;29.58;97304.19;4979438;28;1312;-73
2022/05/23 08:12:36;;;;;;;;;;;;;;;21.90;29.49;97303.63;4964133;28;1383;-73
2022/05/23 08:15:07;;;;;;;;;;;;;;;22.00;28.99;97299.59;4979519;28;1894;-73
2022/05/23 08:17:35;;;;;;;;;;;;;;;22.00;28.78;97305.25;4979738;28;1362;-73
2022/05/23 08:20:15;;;;;;;;;;;;;;;22.02;28.48;97302.75;4979844;28;1342;-73
2022/05/23 08:22:42;;;;;;;;;;;;;;;21.75;28.68;97304.16;4963626;28;1157;-73
2022/05/23 08:25:18;;;;;;;;;;;;;;;21.69;28.54;97308.06;4949853;28;1172;-73
2022/05/23 08:27:53;;;;;;;;;;;;;;;21.71;28.25;97300.72;4964510;28;1250;-73
2022/05/23 08:30:19;;;;;;;;;;;;;;;21.65;28.50;97298.91;4963436;28;1116;-73
2022/05/23 08:32:44;;;;;;;;;;;;;;;21.45;28.26;97300.06;4963283;28;1119;-73
2022/05/23 08:35:14;;;;;;;;;;;;;;;21.64;28.08;97295.31;4940372;29;1918;-73
2022/05/23 08:37:41;;;;;;;;;;;;;;;21.67;27.68;97299.25;4918380;29;1258;-73
2022/05/23 08:40:12;;;;;;;;;;;;;;;21.67;27.54;97287.94;4903561;29;1174;-73
2022/05/23 08:42:41;;;;;;;;;;;;;;;21.56;27.52;97294.00;4918354;29;1328;-73
2022/05/23 08:45:31;;;;;;;;;;;;;;;21.45;27.58;97300.06;4918386;29;1296;-73
2022/05/23 08:48:03;;;;;;;;;;;;;;;21.37;27.73;97303.63;4918699;29;1152;-73
2022/05/23 08:50:34;;;;;;;;;;;;;;;21.42;27.43;97300.19;4918254;29;1137;-73
2022/05/23 08:53:20;;;;;;;;;;;;;;;21.45;27.36;97299.25;4918308;29;1132;-73
2022/05/23 08:56:31;;;;;;;;;;;;;;;21.38;27.64;97305.97;4899130;29;1117;-73
2022/05/23 08:59:32;;;;;;;;;;;;;;;21.42;27.32;97295.31;4915080;29;1215;-73
2022/05/23 09:01:58;;;;;;;;;;;;;;;21.40;27.21;97297.00;4861885;29;1471;-73
2022/05/23 09:04:33;;;;;;;;;;;;;;;21.41;27.21;97292.97;4861814;29;1310;-73
2022/05/23 09:06:59;;;;;;;;;;;;;;;21.31;27.07;97306.25;4865242;29;1142;-73
2022/05/23 09:09:25;;;;;;;;;;;;;;;21.29;27.02;97305.88;4880326;29;1180;-73
2022/05/23 09:11:55;;;;;;;;;;;;;;;21.21;27.32;97302.53;4880542;29;995;-73
2022/05/23 09:14:21;;;;;;;;;;;;;;;21.23;27.15;97302.84;4871469;29;1992;-73
2022/05/23 09:16:47;;;;;;;;;;;;;;;21.26;26.83;97299.09;4917803;29;1055;-73
2022/05/23 09:19:14;;;;;;;;;;;;;;;21.35;26.85;97294.78;4917887;29;933;-73
2022/05/23 09:24:24;;;;;;;;;;;;;;;21.27;27.12;97295.03;4917442;29;1107;-73
2022/05/23 09:26:49;;;;;;;;;;;;;;;21.12;27.75;97293.94;4917839;29;1049;-73
2022/05/23 09:29:15;;;;;;;;;;;;;;;21.12;27.80;97293.16;4917735;29;1014;-72
2022/05/23 09:31:43;;;;;;;;;;;;;;;21.10;27.62;97290.81;4917691;29;1091;-73
2022/05/23 09:34:26;;;;;;;;;;;;;;;21.11;27.68;97300.88;4917758;29;1903;-73
2022/05/23 09:36:51;;;;;;;;;;;;;;;21.17;27.89;97304.69;4917807;29;1025;-73
2022/05/23 09:39:20;;;;;;;;;;;;;;;21.23;27.64;97311.31;4959625;28;992;-73
2022/05/23 09:47:54;;;;;;;;;;;;;;;22.05;26.93;97313.94;4995212;28;902;-73
2022/05/23 09:50:26;;;;;;;;;;;;;;;21.87;27.16;97318.75;4995655;28;970;-73
2022/05/23 09:52:52;;;;;;;;;;;;;;;21.58;27.59;97314.13;4996731;28;936;-73
2022/05/23 09:55:30;;;;;;;;;;;;;;;21.42;27.99;97311.50;4995053;28;1898;-73
2022/05/23 09:58:00;;;;;;;;;;;;;;;21.28;27.84;97313.56;4995028;28;930;-73
2022/05/23 10:00:32;;;;;;;;;;;;;;;21.30;27.94;97325.28;4974677;28;916;-73
2022/05/23 10:03:01;;;;;;;;;;;;;;;21.18;28.00;97323.22;4958364;28;938;-73
2022/05/23 10:05:26;;;;;;;;;;;;;;;21.20;27.88;97323.59;4974696;28;1031;-73
2022/05/23 10:07:54;;;;;;;;;;;;;;;21.25;27.67;97330.69;4974337;28;971;-73
2022/05/23 10:10:24;;;;;;;;;;;;;;;21.17;27.86;97323.69;4974670;28;1165;-73
2022/05/23 10:13:18;;;;;;;;;;;;;;;21.08;27.90;97321.56;4974776;28;1037;-73
2022/05/23 10:15:44;;;;;;;;;;;;;;;21.57;27.33;97319.00;4984370;28;2134;-73
2022/05/23 10:18:11;;;;;;;;;;;;;;;21.88;26.74;97332.44;4977807;28;986;-73
2022/05/23 10:20:40;;;;;;;;;;;;;;;21.56;27.35;97327.97;4977919;28;1014;-73
2022/05/23 10:23:12;;;;;;;;;;;;;;;21.43;27.43;97336.53;4993839;28;972;-73
2022/05/23 10:25:39;;;;;;;;;;;;;;;21.43;27.64;97335.72;4961663;28;1365;-72
2022/05/23 10:28:30;;;;;;;;;;;;;;;21.30;27.80;97330.94;4977778;28;1013;-73
2022/05/23 10:30:58;;;;;;;;;;;;;;;21.28;27.82;97327.72;4955933;28;1007;-73
2022/05/23 10:33:24;;;;;;;;;;;;;;;21.23;28.17;97330.34;4959020;29;1076;-73
2022/05/23 10:36:00;;;;;;;;;;;;;;;21.33;27.79;97337.69;4943071;29;1981;-73
2022/05/23 10:44:12;;;;;;;;;;;;;;;21.46;27.78;97326.31;4978263;28;988;-73
2022/05/23 10:46:37;;;;;;;;;;;;;;;21.84;27.01;97321.22;4978167;28;1011;-73
2022/05/23 10:49:12;;;;;;;;;;;;;;;21.61;27.17;97332.25;4978069;28;1119;-73
2022/05/23 10:51:55;;;;;;;;;;;;;;;21.31;28.06;97329.66;4978070;28;1181;-73
2022/05/23 10:54:30;;;;;;;;;;;;;;;21.32;27.75;97325.59;4977758;28;1906;-73
2022/05/23 10:56:57;;;;;;;;;;;;;;;21.31;27.83;97326.06;4978138;28;1043;-73
2022/05/23 10:59:41;;;;;;;;;;;;;;;21.25;27.89;97325.81;4978084;28;1028;-73
2022/05/23 11:02:33;;;;;;;;;;;;;;;21.17;28.18;97324.50;4977884;28;1029;-73
2022/05/23 11:05:21;;;;;;;;;;;;;;;21.18;27.97;97317.56;4939341;29;1007;-73
2022/05/23 11:08:05;;;;;;;;;;;;;;;21.79;27.46;97323.88;4959027;28;1027;-73
2022/05/23 11:10:34;;;;;;;;;;;;;;;21.91;27.14;97325.81;4977704;28;938;-73
2022/05/23 11:13:04;;;;;;;;;;;;;;;21.58;27.44;97326.25;4977740;28;1007;-73
2022/05/23 11:15:39;;;;;;;;;;;;;;;21.35;27.91;97323.91;4961292;28;1914;-73
2022/05/23 11:18:22;;;;;;;;;;;;;;;21.24;27.88;97327.06;4977616;28;1035;-73
2022/05/23 11:20:49;;;;;;;;;;;;;;;21.12;28.34;97321.47;4977733;28;1027;-73
2022/05/23 11:23:33;;;;;;;;;;;;;;;21.14;28.19;97335.91;4961572;28;1136;-73
2022/05/23 11:26:01;;;;;;;;;;;;;;;21.16;28.15;97328.56;4977591;28;985;-73
2022/05/23 11:34:17;;;;;;;;;;;;;;;21.17;28.40;97318.81;4963600;28;1910;-73
2022/05/23 11:37:01;;;;;;;;;;;;;;;21.22;28.37;97318.25;4977575;28;1024;-73
2022/05/23 11:39:45;;;;;;;;;;;;;;;21.58;27.74;97308.47;4963600;28;1082;-73
2022/05/23 11:42:27;;;;;;;;;;;;;;;21.82;27.02;97301.09;4993969;28;1430;-73
2022/05/23 11:44:53;;;;;;;;;;;;;;;21.58;27.51;97303.59;5017535;28;1127;-73
2022/05/23 11:47:24;;;;;;;;;;;;;;;21.29;27.88;97303.03;5018539;28;998;-73
2022/05/23 11:50:00;;;;;;;;;;;;;;;21.29;28.22;97314.34;5017341;28;959;-73
2022/05/23 11:52:32;;;;;;;;;;;;;;;21.40;27.84;97300.66;5018265;28;950;-73
2022/05/23 11:54:58;;;;;;;;;;;;;;;21.33;28.05;97304.53;5017278;28;1977;-73
2022/05/23 11:57:30;;;;;;;;;;;;;;;21.22;28.16;97308.97;5018336;28;941;-73
2022/05/23 11:59:56;;;;;;;;;;;;;;;21.58;27.87;97300.78;5018291;28;929;-73
2022/05/23 12:02:23;;;;;;;;;;;;;;;21.85;27.14;97302.19;5018111;28;982;-73
2022/05/23 12:04:48;;;;;;;;;;;;;;;21.57;27.71;97295.59;4996060;28;1075;-73
2022/05/23 12:07:32;;;;;;;;;;;;;;;21.51;27.82;97308.75;4996179;28;1010;-73
2022/05/23 12:10:28;;;;;;;;;;;;;;;21.32;27.86;97305.78;4996114;28;1074;-73
2022/05/23 12:13:14;;;;;;;;;;;;;;;21.26;27.99;97304.75;4938191;29;1010;-73
2022/05/23 12:15:43;;;;;;;;;;;;;;;21.32;27.97;97308.59;4880927;29;1970;-73
2022/05/23 12:18:09;;;;;;;;;;;;;;;21.17;28.17;97303.91;4881499;29;997;-73
2022/05/23 12:20:45;;;;;;;;;;;;;;;21.24;28.31;97310.09;4865725;29;1115;-73
2022/05/23 12:23:11;;;;;;;;;;;;;;;21.26;28.31;97318.91;4881626;29;1099;-73
2022/05/23 12:25:37;;;;;;;;;;;;;;;21.74;27.35;97315.97;4865803;29;996;-73
2022/05/23 12:28:02;;;;;;;;;;;;;;;21.85;27.28;97322.78;4881185;29;947;-73
2022/05/23 12:30:35;;;;;;;;;;;;;;;21.51;27.54;97331.41;4881166;29;1104;-73
2022/05/23 12:33:00;;;;;;;;;;;;;;;21.38;28.11;97337.09;4881000;29;1194;-73
2022/05/23 12:35:29;;;;;;;;;;;;;;;21.28;28.12;97341.06;4894102;29;2029;-73
2022/05/23 12:37:57;;;;;;;;;;;;;;;21.21;28.37;97342.13;4918390;29;963;-73
2022/05/23 12:40:25;;;;;;;;;;;;;;;21.27;27.88;97340.28;4918763;29;931;-73
2022/05/23 12:43:12;;;;;;;;;;;;;;;21.38;27.63;97344.81;4902514;29;1065;-73
2022/05/23 12:45:43;;;;;;;;;;;;;;;21.79;27.33;97346.53;4902843;29;946;-73
2022/05/23 12:48:27;;;;;;;;;;;;;;;21.91;27.17;97339.19;4919716;29;1083;-73
2022/05/23 12:51:02;;;;;;;;;;;;;;;21.38;27.84;97333.50;4956555;29;1075;-73
2022/05/23 12:53:31;;;;;;;;;;;;;;;21.26;28.08;97337.94;5003925;28;1007;-73
2022/05/23 12:56:16;;;;;;;;;;;;;;;21.33;27.68;97343.34;5016038;28;1914;-73
2022/05/23 12:58:56;;;;;;;;;;;;;;;21.29;27.74;97360.41;5017225;28;925;-73
2022/05/23 13:01:23;;;;;;;;;;;;;;;21.16;28.07;97368.19;5015714;28;975;-73
2022/05/23 13:04:05;;;;;;;;;;;;;;;21.27;27.69;97379.91;5016957;28;901;-73
2022/05/23 13:06:51;;;;;;;;;;;;;;;21.26;27.92;97375.50;5015950;28;909;-73
2022/05/23 13:09:23;;;;;;;;;;;;;;;21.15;27.86;97375.09;4994948;28;1032;-73
2022/05/23 13:11:49;;;;;;;;;;;;;;;21.48;27.43;97372.72;4978890;28;1049;-73
2022/05/23 13:14:15;;;;;;;;;;;;;;;21.68;27.21;97363.91;4994938;28;1970;-73
2022/05/23 13:16:49;;;;;;;;;;;;;;;21.88;26.63;97354.28;4994896;28;1049;-73
2022/05/23 13:22:06;;;;;;;;;;;;;;;21.26;27.94;97361.34;4955769;29;1068;-74
2022/05/23 13:24:49;;;;;;;;;;;;;;;21.30;27.71;97367.72;4955723;29;1066;-73
2022/05/23 13:27:21;;;;;;;;;;;;;;;21.32;27.67;97365.19;4937144;29;1003;-73
2022/05/23 13:29:50;;;;;;;;;;;;;;;21.26;27.56;97358.53;4936776;29;1041;-73
2022/05/23 13:32:18;;;;;;;;;;;;;;;21.26;27.78;97355.69;4936481;29;1075;-73
2022/05/23 13:34:45;;;;;;;;;;;;;;;21.51;27.30;97359.72;4935943;29;1910;-73
2022/05/23 13:37:18;;;;;;;;;;;;;;;21.79;27.11;97350.13;4935804;29;1430;-73
2022/05/23 13:39:45;;;;;;;;;;;;;;;21.67;27.10;97359.50;4938404;29;1261;-73
2022/05/23 13:42:17;;;;;;;;;;;;;;;21.51;27.33;97354.03;4954599;29;1319;-73
2022/05/23 13:44:43;;;;;;;;;;;;;;;21.44;27.65;97371.25;4952630;29;1102;-73
2022/05/23 13:47:10;;;;;;;;;;;;;;;21.38;27.72;97368.22;4955212;29;1291;-73
2022/05/23 13:49:38;;;;;;;;;;;;;;;21.30;27.53;97383.91;4939172;29;1251;-73
2022/05/23 13:52:06;;;;;;;;;;;;;;;21.26;27.68;97384.00;4962047;28;1189;-73
2022/05/23 13:54:40;;;;;;;;;;;;;;;21.30;27.96;97393.19;4977630;28;1895;-74
2022/05/23 13:57:13;;;;;;;;;;;;;;;21.67;27.01;97390.66;4995641;28;1054;-73
2022/05/23 13:59:45;;;;;;;;;;;;;;;21.84;26.69;97400.53;5016198;28;1088;-73
2022/05/23 14:02:17;;;;;;;;;;;;;;;21.59;27.04;97412.75;5014706;28;967;-73
2022/05/23 14:04:42;;;;;;;;;;;;;;;21.29;27.77;97419.84;5014636;28;1187;-73
2022/05/23 14:07:15;;;;;;;;;;;;;;;21.30;27.79;97412.19;5015185;28;1194;-73
2022/05/23 14:09:41;;;;;;;;;;;;;;;21.22;27.90;97400.28;5010223;28;1180;-73
2022/05/23 14:12:08;;;;;;;;;;;;;;;21.16;27.71;97407.78;5015054;28;1265;-73
2022/05/23 14:14:44;;;;;;;;;;;;;;;21.19;27.94;97406.06;5014613;28;1914;-73
2022/05/23 14:17:15;;;;;;;;;;;;;;;21.23;27.71;97401.88;5015525;28;1198;-73
2022/05/23 14:19:42;;;;;;;;;;;;;;;21.55;27.33;97405.63;4998365;28;1274;-73